Time;durP1;ratioP1;P1;durP2;ratioP2;P2;SDS_P1;SDS_P2;PMS_P1;PMS_P2;Temp;Humidity;BMP_temperature;BMP_pressure;BME280_temperature;BME280_humidity;BME280_pressure;Samples;Min_cycle;Max_cycle;Signal;HPM_P1;HPM_P2
2022/04/15 00:00:27;;;;;;;38.80;19.05;;;;;;;;;;5022876;28;20021;-39
2022/04/15 00:02:53;;;;;;;47.03;18.25;;;;;;;;;;5022519;28;20099;-44
2022/04/15 00:05:34;;;;;;;38.38;17.88;;;;;;;;;;5023607;28;20044;-42
2022/04/15 00:08:01;;;;;;;35.83;18.33;;;;;;;;;;5022939;28;20025;-40
2022/04/15 00:10:28;;;;;;;46.28;20.05;;;;;;;;;;5022782;28;20140;-41
2022/04/15 00:13:00;;;;;;;39.28;19.17;;;;;;;;;;5023686;28;20102;-40
2022/04/15 00:15:27;;;;;;;35.38;18.52;;;;;;;;;;5023217;28;20025;-40
2022/04/15 00:17:54;;;;;;;39.55;19.60;;;;;;;;;;5022458;28;20032;-43
2022/04/15 00:20:20;;;;;;;45.08;18.92;;;;;;;;;;5022322;28;20036;-42
2022/04/15 00:22:47;;;;;;;40.22;18.20;;;;;;;;;;5022382;28;20623;-37
2022/04/15 00:25:15;;;;;;;37.88;19.63;;;;;;;;;;5022377;28;21058;-38
2022/04/15 00:27:41;;;;;;;33.78;17.52;;;;;;;;;;5022775;28;20162;-41
2022/04/15 00:30:08;;;;;;;33.30;16.65;;;;;;;;;;5022248;28;20044;-38
2022/04/15 00:32:35;;;;;;;31.08;15.70;;;;;;;;;;5022384;28;20026;-41
2022/04/15 00:35:01;;;;;;;33.00;16.15;;;;;;;;;;5022326;28;20029;-41
2022/04/15 00:37:27;;;;;;;32.10;16.70;;;;;;;;;;5022021;28;20116;-40
2022/04/15 00:39:53;;;;;;;27.48;15.52;;;;;;;;;;5022386;28;20084;-41
2022/04/15 00:42:22;;;;;;;33.88;16.65;;;;;;;;;;5021982;28;20545;-41
2022/04/15 00:44:51;;;;;;;30.30;15.15;;;;;;;;;;5024095;28;20048;-41
2022/04/15 00:47:26;;;;;;;23.75;13.23;;;;;;;;;;5021793;28;20024;-41
2022/04/15 00:49:52;;;;;;;25.65;12.35;;;;;;;;;;5021775;28;20044;-41
2022/04/15 00:52:20;;;;;;;27.80;13.07;;;;;;;;;;5022991;28;20119;-40
2022/04/15 00:54:49;;;;;;;33.25;11.82;;;;;;;;;;5023238;28;20098;-42
2022/04/15 00:57:16;;;;;;;24.95;11.30;;;;;;;;;;5021810;28;20024;-41
2022/04/15 00:59:43;;;;;;;23.98;10.93;;;;;;;;;;5021427;28;20145;-41
2022/04/15 01:02:10;;;;;;;24.38;12.35;;;;;;;;;;5021637;28;20033;-41
2022/04/15 01:04:37;;;;;;;29.00;13.13;;;;;;;;;;5021959;28;20145;-41
2022/04/15 01:07:05;;;;;;;24.83;14.43;;;;;;;;;;5021543;28;20078;-41
2022/04/15 01:09:42;;;;;;;27.75;14.52;;;;;;;;;;5022747;28;20028;-41
2022/04/15 01:12:09;;;;;;;30.70;15.20;;;;;;;;;;5021332;28;20401;-41
2022/04/15 01:14:37;;;;;;;27.95;14.35;;;;;;;;;;5021348;28;20103;-42
2022/04/15 01:17:03;;;;;;;32.47;14.93;;;;;;;;;;5022926;28;20025;-41
2022/04/15 01:19:29;;;;;;;29.85;15.63;;;;;;;;;;5021546;28;20036;-39
2022/04/15 01:21:59;;;;;;;31.40;15.02;;;;;;;;;;5021363;28;20388;-40
2022/04/15 01:24:25;;;;;;;25.95;13.90;;;;;;;;;;5022472;28;20040;-40
2022/04/15 01:26:51;;;;;;;27.52;14.57;;;;;;;;;;5021600;28;20075;-44
2022/04/15 01:29:17;;;;;;;27.70;15.10;;;;;;;;;;5021369;28;20025;-39
2022/04/15 01:31:44;;;;;;;29.60;13.75;;;;;;;;;;5022449;28;20083;-39
2022/04/15 01:34:10;;;;;;;28.35;13.88;;;;;;;;;;5021247;28;20021;-41
2022/04/15 01:36:36;;;;;;;25.80;12.85;;;;;;;;;;5022225;28;20618;-39
2022/04/15 01:39:02;;;;;;;33.70;15.32;;;;;;;;;;5021112;28;20017;-42
2022/04/15 01:41:28;;;;;;;30.75;16.45;;;;;;;;;;5021555;28;20132;-43
2022/04/15 01:43:54;;;;;;;31.25;16.50;;;;;;;;;;5021195;28;20026;-41
2022/04/15 01:46:20;;;;;;;31.05;16.23;;;;;;;;;;5020904;28;20033;-40
2022/04/15 01:48:46;;;;;;;35.75;15.98;;;;;;;;;;5021099;28;20053;-42
2022/04/15 01:51:12;;;;;;;27.50;15.68;;;;;;;;;;5021031;28;20113;-39
2022/04/15 01:53:38;;;;;;;30.65;16.15;;;;;;;;;;5021162;28;20033;-42
2022/04/15 01:56:07;;;;;;;28.65;14.73;;;;;;;;;;5022004;28;20124;-42
2022/04/15 01:58:36;;;;;;;23.08;12.75;;;;;;;;;;5023428;28;20391;-40
2022/04/15 02:01:03;;;;;;;24.40;13.30;;;;;;;;;;5022084;28;20026;-41
2022/04/15 02:03:29;;;;;;;26.30;13.95;;;;;;;;;;5021068;28;20021;-43
2022/04/15 02:05:55;;;;;;;22.92;13.48;;;;;;;;;;5021663;28;20210;-43
2022/04/15 02:08:21;;;;;;;23.65;13.40;;;;;;;;;;5021015;28;20021;-41
2022/04/15 02:10:47;;;;;;;25.25;14.10;;;;;;;;;;5020694;28;20021;-41
2022/04/15 02:13:13;;;;;;;31.00;15.20;;;;;;;;;;5020642;28;20022;-41
2022/04/15 02:15:39;;;;;;;30.75;15.02;;;;;;;;;;5055442;28;20053;-43
2022/04/15 02:18:08;;;;;;;27.65;15.23;;;;;;;;;;5052909;28;20024;-41
2022/04/15 02:20:34;;;;;;;26.30;13.25;;;;;;;;;;5052763;28;20051;-42
2022/04/15 02:23:00;;;;;;;30.88;15.10;;;;;;;;;;5053051;28;20512;-42
2022/04/15 02:25:26;;;;;;;23.45;13.85;;;;;;;;;;5052601;28;20037;-41
2022/04/15 02:27:52;;;;;;;24.30;14.05;;;;;;;;;;5052646;28;20015;-39
2022/04/15 02:30:18;;;;;;;25.00;14.20;;;;;;;;;;5052698;28;20032;-37
2022/04/15 02:32:44;;;;;;;28.83;15.70;;;;;;;;;;5052953;28;20022;-40
2022/04/15 02:35:10;;;;;;;37.60;21.08;;;;;;;;;;5052797;28;20029;-38
2022/04/15 02:37:36;;;;;;;33.10;18.23;;;;;;;;;;5052649;28;20029;-42
2022/04/15 02:40:03;;;;;;;37.30;16.92;;;;;;;;;;5052280;28;20393;-41
2022/04/15 02:42:29;;;;;;;25.75;14.90;;;;;;;;;;5052560;28;20036;-41
2022/04/15 02:44:56;;;;;;;23.38;14.10;;;;;;;;;;5052449;28;20029;-41
2022/04/15 02:47:22;;;;;;;23.13;13.57;;;;;;;;;;5052718;28;20389;-41
2022/04/15 02:49:50;;;;;;;25.73;14.40;;;;;;;;;;5052763;28;20037;-40
2022/04/15 02:52:16;;;;;;;25.00;13.75;;;;;;;;;;5056161;28;20025;-41
2022/04/15 02:54:45;;;;;;;25.70;13.50;;;;;;;;;;5056111;28;20427;-39
2022/04/15 02:57:11;;;;;;;25.45;14.10;;;;;;;;;;5056153;28;20046;-38
2022/04/15 02:59:37;;;;;;;34.47;14.27;;;;;;;;;;5055944;28;20421;-41
2022/04/15 03:02:03;;;;;;;23.83;15.10;;;;;;;;;;5055996;28;20033;-39
2022/04/15 03:04:29;;;;;;;26.88;14.05;;;;;;;;;;5055958;28;20025;-39
2022/04/15 03:06:55;;;;;;;28.88;14.55;;;;;;;;;;5055785;28;20025;-39
2022/04/15 03:09:21;;;;;;;28.35;14.98;;;;;;;;;;5055882;28;20029;-39
2022/04/15 03:11:48;;;;;;;29.77;14.75;;;;;;;;;;5054624;28;20029;-42
2022/04/15 03:14:17;;;;;;;32.10;14.32;;;;;;;;;;5055851;28;20018;-41
2022/04/15 03:16:43;;;;;;;25.52;13.95;;;;;;;;;;5055939;28;20052;-38
2022/04/15 03:19:09;;;;;;;25.55;13.68;;;;;;;;;;5055738;28;20494;-42
2022/04/15 03:21:38;;;;;;;24.80;13.80;;;;;;;;;;5055772;28;20500;-40
2022/04/15 03:24:05;;;;;;;27.52;14.27;;;;;;;;;;5055713;28;20029;-38
2022/04/15 03:26:31;;;;;;;22.90;12.73;;;;;;;;;;5055537;28;20166;-39
2022/04/15 03:28:57;;;;;;;23.48;12.98;;;;;;;;;;5055634;28;20052;-42
2022/04/15 03:31:23;;;;;;;24.88;13.02;;;;;;;;;;5055540;28;20044;-45
2022/04/15 03:33:49;;;;;;;25.05;13.73;;;;;;;;;;5055452;28;20449;-42
2022/04/15 03:36:18;;;;;;;24.55;12.63;;;;;;;;;;5055454;28;20021;-43
2022/04/15 03:38:44;;;;;;;23.05;13.00;;;;;;;;;;5055438;28;20032;-41
2022/04/15 03:41:11;;;;;;;25.95;13.52;;;;;;;;;;5053886;28;20465;-42
2022/04/15 03:43:37;;;;;;;22.98;12.93;;;;;;;;;;5055399;28;20023;-42
2022/04/15 03:46:04;;;;;;;24.30;13.43;;;;;;;;;;5055375;28;20075;-44
2022/04/15 03:48:30;;;;;;;24.05;13.68;;;;;;;;;;5055212;28;20412;-41
2022/04/15 03:50:56;;;;;;;29.38;13.70;;;;;;;;;;5055198;28;20047;-41
2022/04/15 03:53:22;;;;;;;27.35;13.38;;;;;;;;;;5055079;28;20048;-42
2022/04/15 03:55:48;;;;;;;28.38;14.32;;;;;;;;;;5054923;28;20485;-43
2022/04/15 03:58:16;;;;;;;23.27;12.52;;;;;;;;;;5054894;28;20491;-43
2022/04/15 04:00:42;;;;;;;27.35;12.98;;;;;;;;;;5054823;28;20048;-42
2022/04/15 04:03:08;;;;;;;25.35;13.05;;;;;;;;;;5053994;28;20021;-43
2022/04/15 04:05:36;;;;;;;24.45;13.18;;;;;;;;;;5054844;28;20037;-43
2022/04/15 04:08:02;;;;;;;28.13;13.77;;;;;;;;;;5054639;28;20568;-43
2022/04/15 04:10:29;;;;;;;29.98;15.15;;;;;;;;;;5054613;28;20035;-43
2022/04/15 04:12:55;;;;;;;30.58;15.27;;;;;;;;;;5054687;28;20025;-43
2022/04/15 04:15:21;;;;;;;30.90;16.10;;;;;;;;;;5054750;28;20092;-44
2022/04/15 04:17:48;;;;;;;33.40;16.25;;;;;;;;;;5054768;28;20385;-43
2022/04/15 04:20:16;;;;;;;30.38;15.07;;;;;;;;;;5054602;28;20146;-43
2022/04/15 04:22:42;;;;;;;30.65;15.63;;;;;;;;;;5054453;28;20104;-43
2022/04/15 04:25:09;;;;;;;39.83;16.17;;;;;;;;;;5054480;28;20029;-43
2022/04/15 04:27:39;;;;;;;27.33;15.80;;;;;;;;;;5054528;28;20029;-41
2022/04/15 04:30:06;;;;;;;32.70;15.57;;;;;;;;;;5054316;28;20024;-42
2022/04/15 04:32:32;;;;;;;30.13;16.45;;;;;;;;;;5054254;28;20033;-42
2022/04/15 04:34:58;;;;;;;34.13;17.63;;;;;;;;;;5054256;28;20033;-42
2022/04/15 04:37:26;;;;;;;33.60;18.25;;;;;;;;;;5054181;28;20104;-42
2022/04/15 04:39:55;;;;;;;43.13;18.48;;;;;;;;;;5053961;28;20024;-42
2022/04/15 04:42:22;;;;;;;32.15;17.73;;;;;;;;;;5054204;28;20025;-41
2022/04/15 04:44:48;;;;;;;38.97;17.20;;;;;;;;;;5053865;28;20108;-41
2022/04/15 04:47:15;;;;;;;41.38;16.92;;;;;;;;;;5053921;28;20108;-42
2022/04/15 04:49:41;;;;;;;28.88;16.20;;;;;;;;;;5054076;28;20075;-43
2022/04/15 04:52:08;;;;;;;27.70;15.45;;;;;;;;;;5053863;28;20100;-45
2022/04/15 04:54:34;;;;;;;28.17;14.93;;;;;;;;;;5053802;28;20017;-44
2022/04/15 04:57:03;;;;;;;31.92;14.63;;;;;;;;;;5053699;28;20029;-43
2022/04/15 04:59:31;;;;;;;29.48;14.20;;;;;;;;;;5052555;28;20036;-43
2022/04/15 05:01:57;;;;;;;27.75;13.73;;;;;;;;;;5053928;28;20029;-43
2022/04/15 05:04:23;;;;;;;25.98;14.32;;;;;;;;;;5053651;28;20021;-43
2022/04/15 05:06:49;;;;;;;27.05;15.40;;;;;;;;;;5053485;28;20102;-42
2022/04/15 05:09:18;;;;;;;23.83;13.85;;;;;;;;;;5052272;28;20044;-44
2022/04/15 05:11:44;;;;;;;27.58;14.30;;;;;;;;;;5053650;28;20025;-44
2022/04/15 05:14:10;;;;;;;39.97;19.23;;;;;;;;;;5053320;28;20389;-42
2022/04/15 05:16:36;;;;;;;75.70;31.35;;;;;;;;;;5053503;28;20028;-43
2022/04/15 05:19:03;;;;;;;58.22;25.63;;;;;;;;;;5053543;28;20025;-43
2022/04/15 05:21:29;;;;;;;50.75;23.23;;;;;;;;;;5053332;28;20157;-44
2022/04/15 05:23:55;;;;;;;39.90;20.77;;;;;;;;;;5053502;28;20029;-42
2022/04/15 05:26:21;;;;;;;31.20;17.52;;;;;;;;;;5053174;28;20087;-43
2022/04/15 05:28:47;;;;;;;29.20;16.38;;;;;;;;;;5053185;28;20477;-43
2022/04/15 05:31:13;;;;;;;31.45;17.00;;;;;;;;;;5053173;28;20036;-43
2022/04/15 05:33:39;;;;;;;37.03;16.90;;;;;;;;;;5053409;28;20021;-44
2022/04/15 05:36:06;;;;;;;31.35;14.90;;;;;;;;;;5053549;28;20025;-43
2022/04/15 05:38:32;;;;;;;29.25;14.30;;;;;;;;;;5053127;28;20068;-43
2022/04/15 05:40:58;;;;;;;30.65;14.73;;;;;;;;;;5053082;28;20032;-43
2022/04/15 05:43:24;;;;;;;21.05;13.35;;;;;;;;;;5053162;28;20032;-43
2022/04/15 05:45:50;;;;;;;26.73;14.63;;;;;;;;;;5052533;28;20447;-42
2022/04/15 05:48:16;;;;;;;26.23;13.70;;;;;;;;;;5052356;28;20552;-42
2022/04/15 05:50:42;;;;;;;28.60;14.75;;;;;;;;;;5052623;28;20381;-43
2022/04/15 05:53:08;;;;;;;24.98;14.68;;;;;;;;;;5052390;28;20100;-44
2022/04/15 05:55:35;;;;;;;30.30;14.40;;;;;;;;;;5052361;28;20021;-43
2022/04/15 05:58:02;;;;;;;32.65;14.95;;;;;;;;;;5052502;28;20013;-42
2022/04/15 06:00:28;;;;;;;27.60;12.75;;;;;;;;;;5052380;28;20068;-44
2022/04/15 06:02:54;;;;;;;23.83;14.13;;;;;;;;;;5052484;28;20013;-44
2022/04/15 06:05:22;;;;;;;21.50;12.80;;;;;;;;;;5052385;28;20071;-43
2022/04/15 06:07:48;;;;;;;28.55;13.85;;;;;;;;;;5052302;28;20100;-40
2022/04/15 06:10:14;;;;;;;33.28;13.30;;;;;;;;;;5052266;28;20104;-44
2022/04/15 06:13:03;;;;;;;32.15;14.48;;;;;;;;;;5052351;28;20017;-44
2022/04/15 06:15:33;;;;;;;29.90;19.35;;;;;;;;;;5051925;28;20025;-44
2022/04/15 06:18:00;;;;;;;45.90;25.05;;;;;;;;;;5052221;28;20056;-45
2022/04/15 06:20:26;;;;;;;46.85;25.02;;;;;;;;;;5051804;28;20029;-45
2022/04/15 06:22:52;;;;;;;37.45;20.15;;;;;;;;;;5052142;28;20350;-41
2022/04/15 06:25:18;;;;;;;29.48;17.45;;;;;;;;;;5053051;28;20393;-42
2022/04/15 06:27:44;;;;;;;24.27;14.75;;;;;;;;;;5055989;28;20045;-43
2022/04/15 06:30:11;;;;;;;40.40;25.10;;;;;;;;;;5056124;28;20494;-43
2022/04/15 06:32:39;;;;;;;54.88;34.40;;;;;;;;;;5055996;28;20025;-44
2022/04/15 06:35:06;;;;;;;43.75;27.48;;;;;;;;;;5055846;28;20021;-42
2022/04/15 06:37:32;;;;;;;27.10;17.92;;;;;;;;;;5055669;28;20087;-43
2022/04/15 06:39:58;;;;;;;42.78;24.73;;;;;;;;;;5055884;28;20053;-42
2022/04/15 06:42:28;;;;;;;32.85;19.75;;;;;;;;;;5055812;28;20021;-43
2022/04/15 06:44:54;;;;;;;26.33;14.88;;;;;;;;;;5055596;28;20025;-44
2022/04/15 06:47:22;;;;;;;30.75;17.70;;;;;;;;;;5055455;28;20043;-42
2022/04/15 06:49:49;;;;;;;39.65;22.13;;;;;;;;;;5055684;28;20013;-44
2022/04/15 06:52:16;;;;;;;28.17;16.67;;;;;;;;;;5055095;28;20033;-40
2022/04/15 06:54:42;;;;;;;43.33;24.30;;;;;;;;;;5055175;28;20581;-47
2022/04/15 06:57:09;;;;;;;28.50;14.63;;;;;;;;;;5055526;28;20021;-41
2022/04/15 06:59:35;;;;;;;27.08;15.85;;;;;;;;;;5055795;28;20065;-44
2022/04/15 07:02:01;;;;;;;25.75;14.88;;;;;;;;;;5055946;28;20074;-45
2022/04/15 07:04:28;;;;;;;27.42;16.73;;;;;;;;;;5055917;28;20032;-41
2022/04/15 07:06:55;;;;;;;30.23;12.45;;;;;;;;;;5055704;28;20039;-45
2022/04/15 07:09:21;;;;;;;22.50;13.43;;;;;;;;;;5056019;28;20020;-42
2022/04/15 07:11:47;;;;;;;24.42;12.98;;;;;;;;;;5055464;28;20024;-43
2022/04/15 07:14:13;;;;;;;50.25;27.00;;;;;;;;;;5055405;28;20071;-42
2022/04/15 07:16:41;;;;;;;59.97;35.35;;;;;;;;;;5055442;28;20029;-42
2022/04/15 07:19:08;;;;;;;38.88;23.75;;;;;;;;;;5055273;28;20025;-42
2022/04/15 07:21:41;;;;;;;72.25;39.83;;;;;;;;;;5055103;28;20020;-42
2022/04/15 07:24:10;;;;;;;30.55;17.63;;;;;;;;;;5054593;28;20060;-42
2022/04/15 07:26:36;;;;;;;37.63;22.40;;;;;;;;;;5052305;28;20032;-43
2022/04/15 07:29:03;;;;;;;35.63;20.90;;;;;;;;;;5053827;28;21178;-41
2022/04/15 07:31:29;;;;;;;36.00;20.80;;;;;;;;;;5054106;28;20029;-42
2022/04/15 07:33:55;;;;;;;32.83;20.92;;;;;;;;;;5055035;28;20100;-42
2022/04/15 07:39:00;;;;;;;24.85;15.25;;;;;;;;;;5054860;28;20029;-47
2022/04/15 07:41:26;;;;;;;27.55;17.13;;;;;;;;;;5054724;28;20366;-46
2022/04/15 07:43:54;;;;;;;59.00;36.67;;;;;;;;;;5054832;28;20108;-43
2022/04/15 07:46:20;;;;;;;41.50;25.60;;;;;;;;;;5054559;28;20048;-42
2022/04/15 07:48:48;;;;;;;52.03;30.73;;;;;;;;;;5054496;28;20593;-44
2022/04/15 07:51:14;;;;;;;38.05;20.75;;;;;;;;;;5055169;28;20055;-41
2022/04/15 07:53:40;;;;;;;36.80;20.25;;;;;;;;;;5054718;28;20017;-43
2022/04/15 07:56:06;;;;;;;22.77;12.70;;;;;;;;;;5054499;28;20048;-44
2022/04/15 07:58:32;;;;;;;22.92;14.30;;;;;;;;;;5054544;28;20029;-44
2022/04/15 08:01:00;;;;;;;35.08;19.30;;;;;;;;;;5054512;28;20047;-42
2022/04/15 08:03:28;;;;;;;17.42;10.77;;;;;;;;;;5054376;28;20021;-41
2022/04/15 08:05:55;;;;;;;22.60;13.88;;;;;;;;;;5054220;28;20511;-42
2022/04/15 08:08:21;;;;;;;11.95;7.60;;;;;;;;;;5054159;28;20028;-45
2022/04/15 08:10:53;;;;;;;18.35;8.07;;;;;;;;;;5058481;28;20469;-41
2022/04/15 08:13:20;;;;;;;14.93;9.50;;;;;;;;;;5074585;28;20031;-38
2022/04/15 08:15:50;;;;;;;39.38;20.55;;;;;;;;;;5074640;28;20392;-41
2022/04/15 08:18:17;;;;;;;14.32;7.97;;;;;;;;;;5059235;28;20017;-42
2022/04/15 08:20:43;;;;;;;26.85;16.88;;;;;;;;;;5054180;28;20385;-40
2022/04/15 08:23:09;;;;;;;195.25;118.28;;;;;;;;;;5053866;28;20066;-44
2022/04/15 08:25:39;;;;;;;21.52;13.25;;;;;;;;;;5053636;28;20028;-40
2022/04/15 08:28:05;;;;;;;103.82;65.40;;;;;;;;;;5050049;28;20037;-44
2022/04/15 08:30:33;;;;;;;50.95;27.98;;;;;;;;;;5024133;28;20041;-45
2022/04/15 08:33:00;;;;;;;19.85;10.40;;;;;;;;;;5022345;28;20021;-41
2022/04/15 08:35:27;;;;;;;10.40;6.47;;;;;;;;;;5022516;28;20104;-40
2022/04/15 08:37:53;;;;;;;7.68;4.95;;;;;;;;;;5022419;28;20434;-47
2022/04/15 08:40:21;;;;;;;8.02;4.95;;;;;;;;;;5022434;28;20552;-44
2022/04/15 08:42:47;;;;;;;15.15;8.20;;;;;;;;;;5022486;28;20532;-43
2022/04/15 08:45:13;;;;;;;12.20;6.65;;;;;;;;;;5023123;28;20022;-41
2022/04/15 08:47:40;;;;;;;7.03;4.75;;;;;;;;;;5021386;28;20052;-40
2022/04/15 08:50:07;;;;;;;38.95;24.80;;;;;;;;;;5022410;28;20500;-41
2022/04/15 08:52:33;;;;;;;348.35;218.15;;;;;;;;;;5050760;28;20085;-45
2022/04/15 08:54:59;;;;;;;23.23;14.38;;;;;;;;;;5073852;28;20420;-43
2022/04/15 08:57:26;;;;;;;10.48;6.03;;;;;;;;;;5073894;28;20027;-42
2022/04/15 08:59:53;;;;;;;8.98;5.53;;;;;;;;;;5073683;28;20028;-47
2022/04/15 09:02:49;;;;;;;8.90;5.32;;;;;;;;;;5073785;28;20568;-42
2022/04/15 09:05:18;;;;;;;19.15;8.35;;;;;;;;;;5031705;28;20029;-45
2022/04/15 09:07:45;;;;;;;126.43;67.38;;;;;;;;;;5031608;28;20110;-41
2022/04/15 09:10:11;;;;;;;18.98;11.55;;;;;;;;;;5032044;28;20038;-42
2022/04/15 09:12:39;;;;;;;14.55;8.45;;;;;;;;;;5031665;28;20040;-41
2022/04/15 09:15:08;;;;;;;12.00;6.05;;;;;;;;;;5031475;28;20065;-43
2022/04/15 09:17:38;;;;;;;9.63;4.95;;;;;;;;;;5031458;28;20034;-50
2022/04/15 09:20:06;;;;;;;10.98;5.32;;;;;;;;;;5031755;28;20038;-42
2022/04/15 09:22:32;;;;;;;6.97;4.07;;;;;;;;;;5031479;28;20135;-39
2022/04/15 09:24:59;;;;;;;11.02;4.30;;;;;;;;;;5031645;28;20035;-40
2022/04/15 09:27:26;;;;;;;9.13;4.30;;;;;;;;;;5031207;28;20041;-44
2022/04/15 09:29:54;;;;;;;36.45;19.17;;;;;;;;;;5031103;28;20037;-42
2022/04/15 09:32:22;;;;;;;8.75;4.60;;;;;;;;;;5031293;28;20033;-42
2022/04/15 09:35:00;;;;;;;10.88;6.10;;;;;;;;;;5031350;28;20033;-41
2022/04/15 09:37:27;;;;;;;8.80;4.43;;;;;;;;;;5031318;28;20040;-40
2022/04/15 09:40:06;;;;;;;10.40;4.00;;;;;;;;;;5031195;28;20473;-40
2022/04/15 09:42:34;;;;;;;13.93;7.43;;;;;;;;;;5068326;28;20048;-41
2022/04/15 09:45:20;;;;;;;9.65;4.88;;;;;;;;;;5073287;28;20034;-42
2022/04/15 09:47:52;;;;;;;6.80;4.72;;;;;;;;;;5030934;28;20034;-48
2022/04/15 09:50:22;;;;;;;8.43;5.65;;;;;;;;;;5031291;28;20041;-42
2022/04/15 09:52:52;;;;;;;7.68;4.43;;;;;;;;;;5031021;28;20118;-40
2022/04/15 09:55:23;;;;;;;14.82;7.88;;;;;;;;;;5031008;28;20097;-47
2022/04/15 09:57:50;;;;;;;11.88;5.22;;;;;;;;;;5030922;28;20029;-45
2022/04/15 10:00:16;;;;;;;17.35;10.10;;;;;;;;;;5031877;28;20041;-40
2022/04/15 10:02:43;;;;;;;5.25;4.00;;;;;;;;;;5035107;28;20065;-41
2022/04/15 10:05:09;;;;;;;18.63;10.15;;;;;;;;;;5034922;28;20034;-40
2022/04/15 10:07:37;;;;;;;12.07;4.47;;;;;;;;;;5034814;28;20029;-39
2022/04/15 10:10:03;;;;;;;12.23;6.35;;;;;;;;;;5034831;28;20022;-40
2022/04/15 10:12:30;;;;;;;11.98;7.10;;;;;;;;;;5035021;28;20172;-42
2022/04/15 10:14:56;;;;;;;11.35;7.75;;;;;;;;;;5034990;28;20056;-49
2022/04/15 10:17:23;;;;;;;10.63;4.97;;;;;;;;;;5034782;28;20172;-39
2022/04/15 10:19:49;;;;;;;7.53;5.00;;;;;;;;;;5034760;28;20544;-42
2022/04/15 10:22:16;;;;;;;11.25;5.28;;;;;;;;;;5034749;28;20025;-39
2022/04/15 10:24:42;;;;;;;6.82;4.20;;;;;;;;;;5053062;28;20094;-39
2022/04/15 10:27:11;;;;;;;5.43;4.00;;;;;;;;;;5076902;28;20465;-39
2022/04/15 10:29:37;;;;;;;5.82;3.95;;;;;;;;;;5076634;28;20044;-44
2022/04/15 10:32:16;;;;;;;7.55;3.95;;;;;;;;;;5076545;28;20032;-41
2022/04/15 10:34:48;;;;;;;5.13;3.55;;;;;;;;;;5076692;28;20083;-40
2022/04/15 10:37:15;;;;;;;9.73;3.70;;;;;;;;;;5076379;28;20063;-40
2022/04/15 10:39:48;;;;;;;8.40;3.95;;;;;;;;;;5076610;28;20025;-41
2022/04/15 10:42:18;;;;;;;8.15;4.40;;;;;;;;;;5076132;28;20024;-38
2022/04/15 10:44:44;;;;;;;9.20;4.60;;;;;;;;;;5069596;28;20032;-39
2022/04/15 10:47:27;;;;;;;8.25;4.25;;;;;;;;;;5054745;28;20053;-40
2022/04/15 10:49:55;;;;;;;17.52;6.45;;;;;;;;;;5054256;28;20388;-39
2022/04/15 10:52:24;;;;;;;10.82;6.18;;;;;;;;;;5052292;28;20484;-45
2022/04/15 10:55:00;;;;;;;21.88;13.98;;;;;;;;;;5054825;28;20036;-47
2022/04/15 10:57:36;;;;;;;54.03;31.95;;;;;;;;;;5052791;28;20487;-44
2022/04/15 11:02:49;;;;;;;50.08;31.27;;;;;;;;;;5052111;28;20040;-45
2022/04/15 11:05:32;;;;;;;61.90;43.15;;;;;;;;;;5054411;28;20033;-46
2022/04/15 11:07:59;;;;;;;53.00;39.17;;;;;;;;;;5053891;28;20432;-46
2022/04/15 11:10:41;;;;;;;25.92;16.63;;;;;;;;;;5054310;28;20017;-39
2022/04/15 11:13:28;;;;;;;9.95;6.20;;;;;;;;;;5052332;28;20032;-42
2022/04/15 11:15:57;;;;;;;42.95;30.92;;;;;;;;;;5032670;28;20022;-38
2022/04/15 11:18:24;;;;;;;15.60;9.95;;;;;;;;;;5033063;28;20513;-42
2022/04/15 11:20:50;;;;;;;12.25;6.85;;;;;;;;;;5028718;28;20124;-43
2022/04/15 11:23:16;;;;;;;13.25;8.75;;;;;;;;;;5015296;28;20072;-41
2022/04/15 11:25:45;;;;;;;30.80;18.40;;;;;;;;;;5015435;28;20814;-41
2022/04/15 11:28:12;;;;;;;10.98;6.85;;;;;;;;;;5015563;28;20037;-50
2022/04/15 11:30:38;;;;;;;16.60;5.07;;;;;;;;;;5015472;28;20124;-47
2022/04/15 11:33:05;;;;;;;24.83;14.25;;;;;;;;;;5015201;28;20056;-40
2022/04/15 11:35:33;;;;;;;9.82;6.63;;;;;;;;;;5015507;28;20643;-43
2022/04/15 11:38:03;;;;;;;26.92;17.52;;;;;;;;;;5014855;28;20025;-40
2022/04/15 11:40:36;;;;;;;9.02;5.40;;;;;;;;;;5014160;28;20164;-40
2022/04/15 11:43:09;;;;;;;20.50;12.70;;;;;;;;;;5013800;28;20026;-50
2022/04/15 11:45:39;;;;;;;10.60;6.63;;;;;;;;;;5014874;28;20033;-52
2022/04/15 11:48:34;;;;;;;41.70;25.03;;;;;;;;;;5015137;28;20540;-41
2022/04/15 11:51:01;;;;;;;15.70;8.80;;;;;;;;;;4937555;29;20039;-45
2022/04/15 11:53:27;;;;;;;24.95;15.05;;;;;;;;;;4949147;28;20514;-44
2022/04/15 11:55:59;;;;;;;50.35;33.25;;;;;;;;;;4956347;28;20079;-46
2022/04/15 11:58:31;;;;;;;13.57;6.10;;;;;;;;;;4956030;28;20038;-44
2022/04/15 12:00:58;;;;;;;22.13;13.68;;;;;;;;;;4956623;28;20530;-42
2022/04/15 12:03:27;;;;;;;44.55;28.35;;;;;;;;;;4955078;28;20022;-48
2022/04/15 12:05:54;;;;;;;35.75;24.52;;;;;;;;;;4953692;28;20035;-41
2022/04/15 12:08:21;;;;;;;9.02;5.35;;;;;;;;;;4956041;28;20844;-42
2022/04/15 12:10:49;;;;;;;16.10;10.90;;;;;;;;;;4955912;28;20171;-47
2022/04/15 12:13:16;;;;;;;19.30;13.10;;;;;;;;;;4953948;28;20089;-50
2022/04/15 12:15:43;;;;;;;22.73;15.50;;;;;;;;;;4956260;28;20070;-47
2022/04/15 12:18:10;;;;;;;28.13;16.10;;;;;;;;;;4954810;28;20031;-45
2022/04/15 12:20:39;;;;;;;31.83;20.25;;;;;;;;;;4953957;28;20039;-49
2022/04/15 12:23:05;;;;;;;11.68;5.70;;;;;;;;;;4955281;28;20039;-46
2022/04/15 12:31:27;;;;;;;18.95;9.73;;;;;;;;;;5034552;28;20091;-50
2022/04/15 12:33:54;;;;;;;13.90;7.82;;;;;;;;;;5032913;28;20041;-45
2022/04/15 12:36:21;;;;;;;138.55;90.70;;;;;;;;;;5033243;28;20534;-47
2022/04/15 12:39:00;;;;;;;63.45;40.70;;;;;;;;;;5033810;28;20091;-51
2022/04/15 12:41:37;;;;;;;54.97;35.15;;;;;;;;;;5033708;28;20048;-51
2022/04/15 12:44:16;;;;;;;86.40;50.33;;;;;;;;;;5033809;28;20029;-50
2022/04/15 12:46:44;;;;;;;45.47;28.08;;;;;;;;;;5032873;28;20076;-42
2022/04/15 12:49:22;;;;;;;21.75;14.15;;;;;;;;;;5033212;28;20049;-42
2022/04/15 12:51:49;;;;;;;14.90;8.77;;;;;;;;;;5033370;28;20115;-43
2022/04/15 12:54:15;;;;;;;20.42;10.88;;;;;;;;;;5033493;28;20064;-46
2022/04/15 12:56:53;;;;;;;38.72;25.30;;;;;;;;;;5033718;28;20476;-44
2022/04/15 12:59:20;;;;;;;39.35;26.42;;;;;;;;;;5033101;28;20064;-42
2022/04/15 13:01:46;;;;;;;40.47;24.48;;;;;;;;;;5033708;28;20090;-42
2022/04/15 13:04:15;;;;;;;29.40;20.90;;;;;;;;;;5032336;28;20889;-39
2022/04/15 13:06:41;;;;;;;9.45;6.13;;;;;;;;;;5023103;28;20037;-40
2022/04/15 13:09:08;;;;;;;15.27;10.18;;;;;;;;;;5021941;28;20021;-42
2022/04/15 13:11:34;;;;;;;9.65;4.88;;;;;;;;;;5021685;28;20140;-45
2022/04/15 13:14:00;;;;;;;9.23;3.78;;;;;;;;;;5021816;28;20421;-42
2022/04/15 13:16:27;;;;;;;12.18;5.65;;;;;;;;;;5023370;28;20183;-41
2022/04/15 13:18:54;;;;;;;12.18;5.47;;;;;;;;;;5022613;28;20017;-39
2022/04/15 13:21:21;;;;;;;9.20;4.70;;;;;;;;;;5023424;28;20520;-41
2022/04/15 13:23:49;;;;;;;12.15;6.43;;;;;;;;;;5021633;28;20060;-43
2022/04/15 13:26:16;;;;;;;7.70;5.40;;;;;;;;;;5021563;28;20049;-42
2022/04/15 13:28:42;;;;;;;10.13;6.03;;;;;;;;;;5021375;28;20017;-39
2022/04/15 13:31:08;;;;;;;18.45;12.40;;;;;;;;;;5021795;28;20633;-41
2022/04/15 13:33:38;;;;;;;15.27;8.45;;;;;;;;;;5022303;28;20028;-45
2022/04/15 13:36:04;;;;;;;13.75;7.68;;;;;;;;;;5022079;28;20053;-45
2022/04/15 13:38:30;;;;;;;27.13;17.15;;;;;;;;;;5022552;28;20484;-42
2022/04/15 13:40:56;;;;;;;15.55;8.95;;;;;;;;;;5022108;28;20522;-39
2022/04/15 13:43:22;;;;;;;12.07;8.18;;;;;;;;;;5022544;28;20030;-41
2022/04/15 13:45:49;;;;;;;17.05;6.45;;;;;;;;;;5022236;28;20519;-41
2022/04/15 13:48:15;;;;;;;17.00;8.25;;;;;;;;;;5021157;28;20052;-41
2022/04/15 13:50:41;;;;;;;11.88;7.85;;;;;;;;;;5021402;28;20028;-44
2022/04/15 13:58:42;;;;;;;19.60;11.25;;;;;;;;;;5021012;28;20040;-44
2022/04/15 14:01:23;;;;;;;13.55;7.40;;;;;;;;;;5022372;28;20583;-44
2022/04/15 14:03:50;;;;;;;14.90;8.75;;;;;;;;;;5022253;28;20036;-45
2022/04/15 14:06:16;;;;;;;20.67;13.23;;;;;;;;;;5039820;28;20037;-50
2022/04/15 14:08:42;;;;;;;26.90;14.02;;;;;;;;;;5073080;28;20155;-42
2022/04/15 14:11:08;;;;;;;23.08;16.70;;;;;;;;;;5072840;28;20047;-41
2022/04/15 14:13:35;;;;;;;15.15;7.95;;;;;;;;;;5072897;28;20044;-45
2022/04/15 14:16:01;;;;;;;14.48;9.93;;;;;;;;;;5073119;28;20101;-41
2022/04/15 14:18:27;;;;;;;31.80;17.10;;;;;;;;;;5072921;28;20380;-41
2022/04/15 14:20:53;;;;;;;15.88;9.93;;;;;;;;;;5073036;28;20027;-41
2022/04/15 14:23:20;;;;;;;44.38;16.90;;;;;;;;;;5072971;28;20033;-44
2022/04/15 14:25:46;;;;;;;21.48;11.77;;;;;;;;;;5072523;28;20065;-40
2022/04/15 14:28:13;;;;;;;46.78;31.20;;;;;;;;;;5072529;28;20050;-41
2022/04/15 14:30:41;;;;;;;10.90;8.05;;;;;;;;;;5072760;28;20124;-42
2022/04/15 14:33:07;;;;;;;31.60;20.08;;;;;;;;;;5072722;28;20035;-48
2022/04/15 14:35:34;;;;;;;32.42;18.92;;;;;;;;;;5073046;28;20476;-42
2022/04/15 14:38:00;;;;;;;41.22;23.40;;;;;;;;;;5072865;28;20100;-49
2022/04/15 14:40:26;;;;;;;36.15;18.60;;;;;;;;;;5072606;28;20079;-48